createdAt,value
2022-10-18T00:00:30.629Z,15.11
2022-10-18T00:01:30.617Z,15.12
2022-10-18T00:02:30.696Z,15.13
2022-10-18T00:03:30.666Z,15.09
2022-10-18T00:04:30.590Z,15.13
2022-10-18T00:05:30.579Z,15.04
2022-10-18T00:06:30.591Z,15.03
2022-10-18T00:07:30.838Z,15.03
2022-10-18T00:08:30.550Z,14.94
2022-10-18T00:09:30.539Z,14.98
2022-10-18T00:10:30.531Z,14.95
2022-10-18T00:11:30.522Z,15.03
2022-10-18T00:12:30.513Z,15.11
2022-10-18T00:13:30.501Z,15.05
2022-10-18T00:14:30.493Z,15.13
2022-10-18T00:15:30.481Z,15.19
2022-10-18T00:16:30.524Z,15.20
2022-10-18T00:17:30.727Z,15.22
2022-10-18T00:18:30.454Z,15.18
2022-10-18T00:19:30.442Z,15.25
2022-10-18T00:20:30.438Z,15.33
2022-10-18T00:21:30.423Z,15.34
2022-10-18T00:22:30.783Z,15.30
2022-10-18T00:23:30.403Z,15.23
2022-10-18T00:24:30.394Z,15.19
2022-10-18T00:25:30.383Z,15.15
2022-10-18T00:26:30.375Z,15.11
2022-10-18T00:27:30.366Z,15.09
2022-10-18T00:28:30.392Z,15.11
2022-10-18T00:29:30.344Z,15.12
2022-10-18T00:30:30.337Z,15.15
2022-10-18T00:31:30.326Z,15.15
2022-10-18T00:32:30.468Z,15.05
2022-10-18T00:33:30.304Z,15.09
2022-10-18T00:34:30.296Z,15.07
2022-10-18T00:35:30.286Z,15.01
2022-10-18T00:36:30.276Z,15.04
2022-10-18T00:37:30.265Z,14.91
2022-10-18T00:38:30.276Z,15.01
2022-10-18T00:39:30.246Z,14.86
2022-10-18T00:40:30.241Z,14.90
2022-10-18T00:41:30.239Z,14.86
2022-10-18T00:42:30.568Z,14.95
2022-10-18T00:43:30.209Z,14.94
2022-10-18T00:44:30.199Z,14.95
2022-10-18T00:45:30.189Z,15.03
2022-10-18T00:46:30.180Z,14.93
2022-10-18T00:47:30.167Z,15.04
2022-10-18T00:48:30.160Z,14.95
2022-10-18T00:49:30.149Z,15.12
2022-10-18T00:50:30.139Z,15.15
2022-10-18T00:51:30.128Z,15.09
2022-10-18T00:52:30.584Z,15.07
2022-10-18T00:53:30.111Z,14.97
2022-10-18T00:54:30.118Z,15.04
2022-10-18T00:55:30.088Z,14.95
2022-10-18T00:56:30.078Z,15.09
2022-10-18T00:57:30.068Z,14.95
2022-10-18T00:58:30.061Z,15.03
2022-10-18T00:59:30.049Z,15.05
2022-10-18T01:00:30.041Z,15.03
2022-10-18T01:01:30.129Z,15.05
2022-10-18T01:02:30.472Z,15.11
2022-10-18T01:03:30.010Z,15.05
2022-10-18T01:04:30.000Z,15.13
2022-10-18T01:05:29.991Z,15.15
2022-10-18T01:06:29.982Z,15.07
2022-10-18T01:07:30.210Z,15.13
2022-10-18T01:08:29.961Z,15.12
2022-10-18T01:09:29.950Z,15.15
2022-10-18T01:10:29.982Z,15.12
2022-10-18T01:11:29.930Z,15.16
2022-10-18T01:12:29.922Z,15.15
2022-10-18T01:13:29.913Z,15.15
2022-10-18T01:14:29.903Z,15.20
2022-10-18T01:15:29.892Z,15.12
2022-10-18T01:16:29.883Z,15.31
2022-10-18T01:17:30.313Z,15.16
2022-10-18T01:18:29.864Z,15.23
2022-10-18T01:19:29.853Z,15.22
2022-10-18T01:20:29.848Z,15.19
2022-10-18T01:21:29.833Z,15.19
2022-10-18T01:22:29.826Z,15.20
2022-10-18T01:23:29.814Z,15.28
2022-10-18T01:24:29.805Z,15.20
2022-10-18T01:25:29.794Z,15.30
2022-10-18T01:26:29.807Z,15.23
2022-10-18T01:27:30.176Z,15.25
2022-10-18T01:28:29.802Z,15.34
2022-10-18T01:29:29.754Z,15.30
2022-10-18T01:30:29.747Z,15.19
2022-10-18T01:31:29.737Z,15.25
2022-10-18T01:32:29.728Z,15.25
2022-10-18T01:33:29.716Z,15.20
2022-10-18T01:34:29.721Z,15.25
2022-10-18T01:35:29.697Z,15.30
2022-10-18T01:36:29.689Z,15.31
2022-10-18T01:37:30.012Z,15.22
2022-10-18T01:38:29.670Z,15.25
2022-10-18T01:39:29.659Z,15.23
2022-10-18T01:40:29.649Z,15.33
2022-10-18T01:41:29.638Z,15.31
2022-10-18T01:42:29.651Z,15.20
2022-10-18T01:43:29.621Z,15.37
2022-10-18T01:44:29.610Z,15.31
2022-10-18T01:45:29.598Z,15.25
2022-10-18T01:46:29.593Z,15.34
2022-10-18T01:47:29.903Z,15.40
2022-10-18T01:48:29.571Z,15.44
2022-10-18T01:49:29.561Z,15.37
2022-10-18T01:50:29.553Z,15.38
2022-10-18T01:51:29.542Z,15.34
2022-10-18T01:52:29.724Z,15.35
2022-10-18T01:53:29.522Z,15.38
2022-10-18T01:54:29.528Z,15.31
2022-10-18T01:55:29.501Z,15.38
2022-10-18T01:56:29.495Z,15.28
2022-10-18T01:57:29.481Z,15.28
2022-10-18T01:58:29.494Z,15.33
2022-10-18T01:59:29.465Z,15.37
2022-10-18T02:00:29.456Z,15.28
2022-10-18T02:01:29.443Z,15.33
2022-10-18T02:02:29.640Z,15.28
2022-10-18T02:03:29.424Z,15.30
2022-10-18T02:04:29.514Z,15.34
2022-10-18T02:05:29.419Z,15.35
2022-10-18T02:06:29.398Z,15.34
2022-10-18T02:07:29.388Z,15.34
2022-10-18T02:08:29.376Z,15.33
2022-10-18T02:09:29.367Z,15.19
2022-10-18T02:10:29.377Z,15.34
2022-10-18T02:11:29.347Z,15.34
2022-10-18T02:12:29.600Z,15.31
2022-10-18T02:13:29.327Z,15.35
2022-10-18T02:14:29.360Z,15.34
2022-10-18T02:15:29.307Z,15.31
2022-10-18T02:16:29.300Z,15.33
2022-10-18T02:17:29.290Z,15.33
2022-10-18T02:18:29.282Z,15.28
2022-10-18T02:19:29.276Z,15.27
2022-10-18T02:20:29.261Z,15.38
2022-10-18T02:21:29.249Z,15.34
2022-10-18T02:22:29.549Z,15.28
2022-10-18T02:23:29.230Z,15.38
2022-10-18T02:24:29.222Z,15.35
2022-10-18T02:25:29.211Z,15.34
2022-10-18T02:26:29.203Z,15.23
2022-10-18T02:27:29.192Z,15.28
2022-10-18T02:28:29.207Z,15.28
2022-10-18T02:29:29.172Z,15.25
2022-10-18T02:30:29.185Z,15.20
2022-10-18T02:31:29.160Z,15.20
2022-10-18T02:32:29.422Z,15.15
2022-10-18T02:33:29.134Z,15.16
2022-10-18T02:34:29.128Z,15.16
2022-10-18T02:35:29.114Z,15.16
2022-10-18T02:36:29.105Z,15.18
2022-10-18T02:37:29.098Z,15.15
2022-10-18T02:38:29.087Z,15.04
2022-10-18T02:39:29.075Z,15.16
2022-10-18T02:40:29.072Z,15.13
2022-10-18T02:41:29.055Z,15.16
2022-10-18T02:42:29.318Z,15.12
2022-10-18T02:43:29.037Z,15.28
2022-10-18T02:44:29.029Z,15.25
2022-10-18T02:45:29.018Z,15.15
2022-10-18T02:46:29.032Z,15.20
2022-10-18T02:47:29.137Z,15.22
2022-10-18T02:48:28.988Z,15.15
2022-10-18T02:49:28.977Z,15.15
2022-10-18T02:50:28.969Z,15.18
2022-10-18T02:51:28.960Z,15.12
2022-10-18T02:52:28.951Z,15.11
2022-10-18T02:53:28.939Z,15.12
2022-10-18T02:54:28.929Z,15.11
2022-10-18T02:56:28.908Z,15.04
2022-10-18T02:57:29.264Z,15.09
2022-10-18T02:58:28.891Z,15.09
2022-10-18T02:59:28.878Z,15.13
2022-10-18T03:00:28.873Z,15.09
2022-10-18T03:01:28.918Z,14.95
2022-10-18T03:02:28.871Z,14.98
2022-10-18T03:03:28.838Z,15.00
2022-10-18T03:05:28.819Z,14.86
2022-10-18T03:06:28.910Z,14.97
2022-10-18T03:07:28.993Z,14.93
2022-10-18T03:08:28.790Z,14.94
2022-10-18T03:09:28.785Z,14.78
2022-10-18T03:10:28.772Z,14.80
2022-10-18T03:11:28.760Z,14.94
2022-10-18T03:12:28.750Z,14.91
2022-10-18T03:14:28.732Z,14.98
2022-10-18T03:15:28.718Z,14.87
2022-10-18T03:16:28.710Z,15.01
2022-10-18T03:17:28.799Z,14.90
2022-10-18T03:18:28.708Z,14.98
2022-10-18T03:19:28.679Z,15.03
2022-10-18T03:20:28.668Z,14.93
2022-10-18T03:21:28.656Z,14.83
2022-10-18T03:23:28.636Z,14.93
2022-10-18T03:24:28.632Z,14.85
2022-10-18T03:25:28.616Z,14.94
2022-10-18T03:26:28.609Z,14.78
2022-10-18T03:27:28.850Z,14.85
2022-10-18T03:28:28.607Z,14.80
2022-10-18T03:29:28.577Z,14.79
2022-10-18T03:30:28.569Z,14.79
2022-10-18T03:31:28.556Z,14.75
2022-10-18T03:32:28.574Z,14.74
2022-10-18T03:33:28.537Z,14.79
2022-10-18T03:34:28.546Z,14.66
2022-10-18T03:35:28.516Z,14.63
2022-10-18T03:36:28.508Z,14.61
2022-10-18T03:37:28.495Z,14.60
2022-10-18T03:38:28.496Z,14.56
2022-10-18T03:39:28.476Z,14.69
2022-10-18T03:40:28.524Z,14.71
2022-10-18T03:41:28.457Z,14.66
2022-10-18T03:42:28.528Z,14.67
2022-10-18T03:43:28.435Z,14.61
2022-10-18T03:44:28.426Z,14.59
2022-10-18T03:45:31.221Z,14.66
2022-10-18T03:46:28.505Z,14.54
2022-10-18T03:47:28.396Z,14.63
2022-10-18T03:48:28.386Z,14.67
2022-10-18T03:49:28.409Z,14.56
2022-10-18T03:50:28.384Z,14.60
2022-10-18T03:51:28.354Z,14.54
2022-10-18T03:52:28.564Z,14.48
2022-10-18T03:53:28.332Z,14.53
2022-10-18T03:54:28.326Z,14.52
2022-10-18T03:55:28.312Z,14.53
2022-10-18T03:56:28.308Z,14.49
2022-10-18T03:57:28.292Z,14.44
2022-10-18T03:58:28.339Z,14.42
2022-10-18T03:59:28.273Z,14.45
2022-10-18T04:00:28.265Z,14.45
2022-10-18T04:01:28.285Z,14.49
2022-10-18T04:02:28.245Z,14.48
2022-10-18T04:03:28.232Z,14.49
2022-10-18T04:04:28.223Z,14.53
2022-10-18T04:05:28.212Z,14.56
2022-10-18T04:06:28.225Z,14.49
2022-10-18T04:07:28.227Z,14.54
2022-10-18T04:08:28.181Z,14.49
2022-10-18T04:09:28.170Z,14.59
2022-10-18T04:10:28.261Z,14.56
2022-10-18T04:11:28.150Z,14.53
2022-10-18T04:12:28.147Z,14.49
2022-10-18T04:13:28.130Z,14.61
2022-10-18T04:14:28.121Z,14.59
2022-10-18T04:15:28.132Z,14.49
2022-10-18T04:16:28.115Z,14.54
2022-10-18T04:17:28.090Z,14.57
2022-10-18T04:18:28.077Z,14.52
2022-10-18T04:19:28.070Z,14.45
2022-10-18T04:20:28.058Z,14.44
2022-10-18T04:21:28.049Z,14.42
2022-10-18T04:22:28.058Z,14.39
2022-10-18T04:23:28.031Z,14.42
2022-10-18T04:24:28.016Z,14.42
2022-10-18T04:25:28.007Z,14.45
2022-10-18T04:26:27.996Z,14.41
2022-10-18T04:27:28.001Z,14.29
2022-10-18T04:28:28.008Z,14.27
2022-10-18T04:29:27.968Z,14.34
2022-10-18T04:30:27.959Z,14.30
2022-10-18T04:31:27.946Z,14.38
2022-10-18T04:32:27.933Z,14.39
2022-10-18T04:33:27.925Z,14.42
2022-10-18T04:34:27.913Z,14.45
2022-10-18T04:35:27.904Z,14.45
2022-10-18T04:36:27.891Z,14.38
2022-10-18T04:37:27.898Z,14.46
2022-10-18T04:38:27.888Z,14.45
2022-10-18T04:39:27.863Z,14.38
2022-10-18T04:40:27.850Z,14.34
2022-10-18T04:41:27.841Z,14.42
2022-10-18T04:42:27.832Z,14.34
2022-10-18T04:43:27.822Z,14.41
2022-10-18T04:44:27.809Z,14.39
2022-10-18T04:45:27.802Z,14.30
2022-10-18T04:46:27.789Z,14.26
2022-10-18T04:47:27.781Z,14.26
2022-10-18T04:48:27.768Z,14.34
2022-10-18T04:49:27.759Z,14.34
2022-10-18T04:50:27.747Z,14.39
2022-10-18T04:51:27.740Z,14.31
2022-10-18T04:52:27.726Z,14.21
2022-10-18T04:53:27.717Z,14.20
2022-10-18T04:54:28.683Z,14.26
2022-10-18T04:55:27.698Z,14.29
2022-10-18T04:56:27.683Z,14.17
2022-10-18T04:57:27.677Z,14.27
2022-10-18T04:58:27.664Z,14.24
2022-10-18T04:59:27.669Z,14.21
2022-10-18T05:00:27.644Z,14.20
2022-10-18T05:01:27.661Z,14.23
2022-10-18T05:02:27.623Z,14.12
2022-10-18T05:03:27.614Z,14.13
2022-10-18T05:04:27.602Z,14.11
2022-10-18T05:05:49.573Z,14.16
2022-10-18T05:06:27.581Z,14.16
2022-10-18T05:07:27.575Z,14.12
2022-10-18T05:08:27.560Z,14.19
2022-10-18T05:09:27.551Z,14.21
2022-10-18T05:10:27.610Z,14.13
2022-10-18T05:11:27.533Z,14.08
2022-10-18T05:12:27.519Z,14.02
2022-10-18T05:13:27.511Z,14.12
2022-10-18T05:14:27.514Z,14.09
2022-10-18T05:15:27.591Z,14.05
2022-10-18T05:16:27.476Z,14.08
2022-10-18T05:17:27.469Z,14.20
2022-10-18T05:18:27.456Z,14.13
2022-10-18T05:19:27.448Z,14.12
2022-10-18T05:20:27.435Z,14.16
2022-10-18T05:21:27.426Z,14.17
2022-10-18T05:22:27.414Z,14.06
2022-10-18T05:23:27.407Z,14.08
2022-10-18T05:24:27.854Z,14.06
2022-10-18T05:25:27.384Z,14.01
2022-10-18T05:26:27.390Z,14.02
2022-10-18T05:27:27.364Z,14.08
2022-10-18T05:28:39.632Z,14.01
2022-10-18T05:30:27.331Z,14.17
2022-10-18T05:31:27.328Z,14.17
2022-10-18T05:32:27.309Z,14.05
2022-10-18T05:33:27.300Z,14.16
2022-10-18T05:34:27.302Z,14.17
2022-10-18T05:35:27.281Z,14.17
2022-10-18T05:36:27.270Z,14.19
2022-10-18T05:37:28.439Z,14.20
2022-10-18T05:38:27.315Z,14.16
2022-10-18T05:39:27.239Z,14.06
2022-10-18T05:40:27.224Z,14.02
2022-10-18T05:41:27.218Z,14.01
2022-10-18T05:42:27.229Z,14.06
2022-10-18T05:43:27.199Z,14.08
2022-10-18T05:44:27.183Z,14.02
2022-10-18T05:45:27.173Z,14.06
2022-10-18T05:46:27.162Z,14.06
2022-10-18T05:47:27.187Z,14.09
2022-10-18T05:48:27.142Z,13.99
2022-10-18T05:49:27.132Z,13.98
2022-10-18T05:50:27.120Z,14.06
2022-10-18T05:51:27.111Z,14.04
2022-10-18T05:52:27.098Z,14.12
2022-10-18T05:53:38.819Z,14.20
2022-10-18T05:54:27.077Z,14.08
2022-10-18T05:55:27.071Z,14.12
2022-10-18T05:56:27.091Z,14.02
2022-10-18T05:57:27.047Z,14.01
2022-10-18T05:58:27.057Z,14.09
2022-10-18T05:59:27.027Z,13.94
2022-10-18T06:00:27.066Z,14.05
2022-10-18T06:01:27.004Z,14.05
2022-10-18T06:02:27.062Z,14.08
2022-10-18T06:03:26.988Z,14.04
2022-10-18T06:04:26.972Z,14.04
2022-10-18T06:05:27.004Z,14.01
2022-10-18T06:06:26.951Z,14.04
2022-10-18T06:07:26.954Z,14.13
2022-10-18T06:08:26.928Z,14.12
2022-10-18T06:09:26.925Z,14.24
2022-10-18T06:10:27.007Z,14.20
2022-10-18T06:11:27.102Z,14.13
2022-10-18T06:12:26.887Z,14.13
2022-10-18T06:13:28.208Z,14.21
2022-10-18T06:14:26.885Z,14.06
2022-10-18T06:15:26.907Z,14.11
2022-10-18T06:16:32.068Z,14.12
2022-10-18T06:17:28.992Z,14.06
2022-10-18T06:18:26.825Z,14.13
2022-10-18T06:19:26.815Z,14.08
2022-10-18T06:20:26.802Z,14.16
2022-10-18T06:21:26.793Z,14.17
2022-10-18T06:22:26.786Z,14.24
2022-10-18T06:23:26.772Z,14.19
2022-10-18T06:24:26.765Z,14.21
2022-10-18T06:25:26.749Z,14.31
2022-10-18T06:26:26.737Z,14.26
2022-10-18T06:27:26.733Z,14.20
2022-10-18T06:28:26.765Z,14.34
2022-10-18T06:29:26.707Z,14.31
2022-10-18T06:30:26.719Z,14.39
2022-10-18T06:31:26.687Z,14.41
2022-10-18T06:32:26.674Z,14.56
2022-10-18T06:33:26.668Z,14.52
2022-10-18T06:34:26.658Z,14.54
2022-10-18T06:35:26.661Z,14.57
2022-10-18T06:36:26.634Z,14.67
2022-10-18T06:37:26.676Z,14.61
2022-10-18T06:38:26.660Z,14.78
2022-10-18T06:39:26.604Z,14.78
2022-10-18T06:40:26.590Z,14.67
2022-10-18T06:41:26.581Z,14.72
2022-10-18T06:42:26.570Z,14.85
2022-10-18T06:43:26.561Z,14.93
2022-10-18T06:44:26.548Z,15.05
2022-10-18T06:45:26.541Z,15.07
2022-10-18T06:46:26.549Z,15.04
2022-10-18T06:47:26.519Z,15.12
2022-10-18T06:48:26.512Z,15.15
2022-10-18T06:49:26.498Z,15.25
2022-10-18T06:50:26.495Z,15.25
2022-10-18T06:51:26.480Z,15.25
2022-10-18T06:52:26.477Z,15.34
2022-10-18T06:53:26.461Z,15.40
2022-10-18T06:54:26.448Z,15.40
2022-10-18T06:55:26.440Z,15.48
2022-10-18T06:56:26.432Z,15.55
2022-10-18T06:57:26.421Z,15.55
2022-10-18T06:58:26.409Z,15.52
2022-10-18T06:59:28.967Z,15.56
2022-10-18T07:00:26.387Z,15.58
2022-10-18T07:01:26.395Z,15.67
2022-10-18T07:02:26.386Z,15.64
2022-10-18T07:03:26.364Z,15.76
2022-10-18T07:04:26.348Z,15.84
2022-10-18T07:05:26.415Z,15.88
2022-10-18T07:06:26.329Z,15.93
2022-10-18T07:07:26.322Z,15.98
2022-10-18T07:08:26.309Z,15.99
2022-10-18T07:09:26.300Z,16.03
2022-10-18T07:10:26.296Z,16.14
2022-10-18T07:11:26.284Z,16.14
2022-10-18T07:12:26.271Z,16.10
2022-10-18T07:13:32.580Z,16.08
2022-10-18T07:14:29.047Z,16.16
2022-10-18T07:15:26.258Z,16.26
2022-10-18T07:16:26.243Z,16.36
2022-10-18T07:17:26.222Z,16.44
2022-10-18T07:18:26.229Z,16.44
2022-10-18T07:19:26.213Z,16.51
2022-10-18T07:20:26.193Z,16.51
2022-10-18T07:21:26.190Z,16.54
2022-10-18T07:22:30.140Z,16.63
2022-10-18T07:23:26.169Z,16.77
2022-10-18T07:25:28.495Z,16.80
2022-10-18T07:26:26.162Z,16.87
2022-10-18T07:27:26.129Z,16.92
2022-10-18T07:28:26.152Z,16.90
2022-10-18T07:29:26.109Z,17.10
2022-10-18T07:30:26.104Z,17.07
2022-10-18T07:31:26.118Z,17.12
2022-10-18T07:32:26.085Z,17.15
2022-10-18T07:33:26.073Z,17.07
2022-10-18T07:34:26.092Z,17.20
2022-10-18T07:35:26.055Z,17.27
2022-10-18T07:36:26.052Z,17.20
2022-10-18T07:37:27.937Z,17.22
2022-10-18T07:38:26.032Z,17.32
2022-10-18T07:39:26.022Z,17.25
2022-10-18T07:40:26.014Z,17.36
2022-10-18T07:41:26.007Z,17.49
2022-10-18T07:42:25.997Z,17.54
2022-10-18T07:43:25.989Z,17.60
2022-10-18T07:44:25.978Z,17.55
2022-10-18T07:45:26.009Z,17.71
2022-10-18T07:46:25.962Z,17.58
2022-10-18T07:47:26.264Z,17.63
2022-10-18T07:48:25.944Z,17.60
2022-10-18T07:49:25.934Z,17.73
2022-10-18T07:50:25.945Z,17.63
2022-10-18T07:51:25.917Z,17.68
2022-10-18T07:52:25.910Z,17.68
2022-10-18T07:53:25.900Z,17.71
2022-10-18T07:54:25.895Z,17.71
2022-10-18T07:55:25.881Z,17.73
2022-10-18T07:56:25.876Z,17.71
2022-10-18T07:57:25.866Z,17.70
2022-10-18T07:58:25.859Z,17.87
2022-10-18T07:59:25.848Z,18.01
2022-10-18T08:00:25.841Z,18.02
2022-10-18T08:01:25.880Z,18.07
2022-10-18T08:02:25.825Z,18.17
2022-10-18T08:03:25.819Z,18.26
2022-10-18T08:04:25.808Z,18.31
2022-10-18T08:05:25.849Z,18.29
2022-10-18T08:06:25.812Z,18.39
2022-10-18T08:07:25.784Z,18.50
2022-10-18T08:08:25.777Z,18.50
2022-10-18T08:09:25.764Z,18.53
2022-10-18T08:10:25.760Z,18.56
2022-10-18T08:11:25.748Z,18.65
2022-10-18T08:12:25.742Z,18.69
2022-10-18T08:13:25.734Z,18.76
2022-10-18T08:14:25.725Z,18.86
2022-10-18T08:15:25.717Z,18.83
2022-10-18T08:16:25.757Z,18.99
2022-10-18T08:17:25.701Z,18.99
2022-10-18T08:18:25.697Z,19.05
2022-10-18T08:19:25.689Z,19.05
2022-10-18T08:20:30.972Z,19.01
2022-10-18T08:21:25.669Z,19.09
2022-10-18T08:22:25.683Z,19.17
2022-10-18T08:23:25.755Z,19.07
2022-10-18T08:24:25.649Z,19.16
2022-10-18T08:25:25.690Z,19.20
2022-10-18T08:26:25.635Z,19.13
2022-10-18T08:27:25.624Z,19.13
2022-10-18T08:28:25.687Z,19.15
2022-10-18T08:29:29.130Z,19.23
2022-10-18T08:30:25.604Z,19.16
2022-10-18T08:31:25.611Z,19.17
2022-10-18T08:32:25.587Z,19.27
2022-10-18T08:33:25.581Z,19.27
2022-10-18T08:34:25.616Z,19.30
2022-10-18T08:35:25.566Z,19.28
2022-10-18T08:36:25.558Z,19.28
2022-10-18T08:37:25.552Z,19.28
2022-10-18T08:38:25.560Z,19.31
2022-10-18T08:39:25.537Z,19.43
2022-10-18T08:40:25.527Z,19.38
2022-10-18T08:41:25.522Z,19.52
2022-10-18T08:42:25.513Z,19.46
2022-10-18T08:43:25.565Z,19.45
2022-10-18T08:44:25.500Z,19.55
2022-10-18T08:45:37.719Z,19.58
2022-10-18T08:46:25.484Z,19.57
2022-10-18T08:47:25.478Z,19.65
2022-10-18T08:48:25.520Z,19.79
2022-10-18T08:49:25.464Z,19.78
2022-10-18T08:50:25.456Z,19.86
2022-10-18T08:51:25.452Z,19.86
2022-10-18T08:52:25.440Z,19.94
2022-10-18T08:53:25.437Z,19.90
2022-10-18T08:54:25.469Z,20.10
2022-10-18T08:55:25.425Z,20.10
2022-10-18T08:56:25.413Z,20.16
2022-10-18T08:57:25.409Z,20.15
2022-10-18T08:58:25.402Z,20.22
2022-10-18T08:59:25.696Z,20.26
2022-10-18T09:00:25.385Z,20.26
2022-10-18T09:01:25.383Z,20.38
2022-10-18T09:02:25.376Z,20.31
2022-10-18T09:03:25.461Z,20.35
2022-10-18T09:04:25.364Z,20.38
2022-10-18T09:05:25.354Z,20.53
2022-10-18T09:06:25.347Z,20.53
2022-10-18T09:07:25.343Z,20.63
2022-10-18T09:08:25.334Z,20.58
2022-10-18T09:09:25.327Z,20.64
2022-10-18T09:10:25.336Z,20.72
2022-10-18T09:11:25.387Z,20.76
2022-10-18T09:12:25.306Z,20.76
2022-10-18T09:13:25.305Z,20.82
2022-10-18T09:14:25.295Z,20.75
2022-10-18T09:15:25.289Z,20.85
2022-10-18T09:16:25.280Z,20.94
2022-10-18T09:17:25.282Z,20.91
2022-10-18T09:18:25.268Z,20.97
2022-10-18T09:19:25.265Z,21.00
2022-10-18T09:20:25.264Z,20.98
2022-10-18T09:21:25.253Z,21.03
2022-10-18T09:22:25.244Z,21.06
2022-10-18T09:23:25.241Z,21.12
2022-10-18T09:24:25.231Z,21.08
2022-10-18T09:25:25.227Z,21.15
2022-10-18T09:26:25.238Z,21.12
2022-10-18T09:27:25.218Z,21.26
2022-10-18T09:28:25.341Z,21.27
2022-10-18T09:29:25.211Z,21.33
2022-10-18T09:30:25.194Z,21.34
2022-10-18T09:31:25.196Z,21.34
2022-10-18T09:32:25.185Z,21.33
2022-10-18T09:33:25.178Z,21.42
2022-10-18T09:34:25.171Z,21.38
2022-10-18T09:35:25.167Z,21.43
2022-10-18T09:36:25.161Z,21.43
2022-10-18T09:37:25.155Z,21.38
2022-10-18T09:39:25.145Z,21.56
2022-10-18T09:40:25.137Z,21.56
2022-10-18T09:41:25.132Z,21.67
2022-10-18T09:42:25.144Z,21.74
2022-10-18T09:43:25.122Z,21.75
2022-10-18T09:44:25.115Z,21.73
2022-10-18T09:45:25.110Z,21.75
2022-10-18T09:46:25.103Z,21.86
2022-10-18T09:47:25.122Z,21.83
2022-10-18T09:49:25.088Z,21.85
2022-10-18T09:50:25.083Z,21.91
2022-10-18T09:51:25.080Z,21.93
2022-10-18T09:52:25.071Z,21.91
2022-10-18T09:53:25.063Z,21.98
2022-10-18T09:54:25.060Z,22.02
2022-10-18T09:55:25.056Z,22.01
2022-10-18T09:56:25.049Z,21.96
2022-10-18T09:57:25.044Z,22.01
2022-10-18T09:58:25.058Z,22.04
2022-10-18T09:59:25.032Z,22.09
2022-10-18T10:00:25.029Z,22.14
2022-10-18T10:01:25.021Z,22.20
2022-10-18T10:02:25.062Z,22.19
2022-10-18T10:03:25.011Z,22.15
2022-10-18T10:04:25.008Z,22.20
2022-10-18T10:05:25.001Z,22.27
2022-10-18T10:06:24.998Z,22.33
2022-10-18T10:07:24.991Z,22.33
2022-10-18T10:08:24.993Z,22.39
2022-10-18T10:09:25.001Z,22.39
2022-10-18T10:10:24.991Z,22.44
2022-10-18T10:11:24.970Z,22.49
2022-10-18T10:12:24.972Z,22.52
2022-10-18T10:13:24.962Z,22.48
2022-10-18T10:14:24.984Z,22.44
2022-10-18T10:15:25.530Z,22.48
2022-10-18T10:16:24.947Z,22.44
2022-10-18T10:17:24.947Z,22.46
2022-10-18T10:18:24.938Z,22.60
2022-10-18T10:19:24.932Z,22.60
2022-10-18T10:20:24.928Z,22.63
2022-10-18T10:21:24.921Z,22.63
2022-10-18T10:22:24.919Z,22.67
2022-10-18T10:23:24.915Z,22.67
2022-10-18T10:24:27.410Z,22.64
2022-10-18T10:25:24.900Z,22.76
2022-10-18T10:26:24.899Z,22.85
2022-10-18T10:27:24.893Z,22.88
2022-10-18T10:28:24.918Z,22.89
2022-10-18T10:29:43.647Z,22.91
2022-10-18T10:30:24.900Z,22.96
2022-10-18T10:31:24.877Z,22.91
2022-10-18T10:32:24.965Z,22.86
2022-10-18T10:33:24.864Z,22.96
2022-10-18T10:34:24.861Z,22.96
2022-10-18T10:35:35.470Z,23.01
2022-10-18T10:36:24.851Z,23.03
2022-10-18T10:37:24.845Z,23.07
2022-10-18T10:38:24.846Z,23.09
2022-10-18T10:39:24.838Z,23.09
2022-10-18T10:40:28.358Z,23.22
2022-10-18T10:41:24.844Z,23.23
2022-10-18T10:42:24.824Z,23.21
2022-10-18T10:43:37.128Z,23.19
2022-10-18T10:44:24.816Z,23.16
2022-10-18T10:45:24.809Z,23.19
2022-10-18T10:46:24.833Z,23.22
2022-10-18T10:47:24.800Z,23.22
2022-10-18T10:48:24.797Z,23.25
2022-10-18T10:49:39.655Z,23.26
2022-10-18T10:50:24.819Z,23.37
2022-10-18T10:51:24.783Z,23.34
2022-10-18T10:52:28.772Z,23.32
2022-10-18T10:53:24.775Z,23.37
2022-10-18T10:54:24.771Z,23.42
2022-10-18T10:55:34.925Z,23.52
2022-10-18T10:56:24.766Z,23.50
2022-10-18T10:57:24.759Z,23.60
2022-10-18T10:58:24.756Z,23.67
2022-10-18T10:59:24.754Z,23.75
2022-10-18T11:00:24.750Z,23.71
2022-10-18T11:01:24.741Z,23.77
2022-10-18T11:02:24.759Z,23.75
2022-10-18T11:03:29.566Z,23.79
2022-10-18T11:04:24.745Z,23.74
2022-10-18T11:05:24.725Z,23.75
2022-10-18T11:06:24.727Z,23.75
2022-10-18T11:07:24.819Z,23.74
2022-10-18T11:08:24.715Z,23.79
2022-10-18T11:09:24.711Z,23.86
2022-10-18T11:10:24.708Z,23.81
2022-10-18T11:11:24.703Z,23.93
2022-10-18T11:12:24.701Z,23.92
2022-10-18T11:13:24.695Z,23.90
2022-10-18T11:14:26.255Z,23.96
2022-10-18T11:15:24.689Z,23.94
2022-10-18T11:17:24.680Z,24.09
2022-10-18T11:18:24.696Z,24.02
2022-10-18T11:19:26.414Z,24.00
2022-10-18T11:20:24.668Z,24.08
2022-10-18T11:21:24.667Z,24.06
2022-10-18T11:22:24.661Z,23.97
2022-10-18T11:23:24.661Z,23.90
2022-10-18T11:24:24.655Z,23.89
2022-10-18T11:25:24.702Z,23.90
2022-10-18T11:26:24.646Z,23.77
2022-10-18T11:27:24.647Z,23.69
2022-10-18T11:28:24.672Z,23.72
2022-10-18T11:29:24.638Z,23.68
2022-10-18T11:30:24.632Z,23.67
2022-10-18T11:31:24.638Z,23.60
2022-10-18T11:32:24.623Z,23.63
2022-10-18T11:33:33.711Z,23.62
2022-10-18T11:34:24.638Z,23.60
2022-10-18T11:35:24.618Z,23.49
2022-10-18T11:37:30.325Z,23.34
2022-10-18T11:38:24.605Z,23.22
2022-10-18T11:39:24.600Z,23.26
2022-10-18T11:40:24.594Z,23.23
2022-10-18T11:41:24.590Z,23.25
2022-10-18T11:42:24.585Z,23.37
2022-10-18T11:43:30.096Z,23.42
2022-10-18T11:44:24.580Z,23.45
2022-10-18T11:45:24.683Z,23.57
2022-10-18T11:46:24.570Z,23.64
2022-10-18T11:47:24.570Z,23.71
2022-10-18T11:48:24.564Z,23.75
2022-10-18T11:49:24.565Z,23.72
2022-10-18T11:50:24.579Z,23.84
2022-10-18T11:51:34.184Z,23.81
2022-10-18T11:52:24.547Z,23.79
2022-10-18T11:53:24.546Z,23.67
2022-10-18T11:54:24.541Z,23.62
2022-10-18T11:55:27.691Z,23.62
2022-10-18T11:56:24.531Z,23.77
2022-10-18T11:57:24.531Z,23.75
2022-10-18T11:58:24.526Z,23.79
2022-10-18T11:59:24.525Z,23.77
2022-10-18T12:00:24.651Z,23.72
2022-10-18T12:02:24.529Z,23.53
2022-10-18T12:03:24.507Z,23.38
2022-10-18T12:04:24.505Z,23.37
2022-10-18T12:05:25.030Z,23.34
2022-10-18T12:06:24.516Z,23.26
2022-10-18T12:07:27.778Z,23.22
2022-10-18T12:08:24.588Z,23.29
2022-10-18T12:09:24.486Z,23.32
2022-10-18T12:10:37.734Z,23.21
2022-10-18T12:11:24.479Z,23.26
2022-10-18T12:12:24.492Z,23.34
2022-10-18T12:13:24.469Z,23.44
2022-10-18T12:14:24.466Z,23.34
2022-10-18T12:15:24.472Z,23.41
2022-10-18T12:16:45.512Z,23.56
2022-10-18T12:17:43.933Z,23.62
2022-10-18T12:18:24.450Z,23.59
2022-10-18T12:19:26.756Z,23.60
2022-10-18T12:20:24.450Z,23.53
2022-10-18T12:21:25.850Z,23.67
2022-10-18T12:22:24.462Z,23.75
2022-10-18T12:24:24.434Z,23.68
2022-10-18T12:25:24.422Z,23.69
2022-10-18T12:26:24.418Z,23.72
2022-10-18T12:27:24.416Z,23.75
2022-10-18T12:28:24.507Z,23.89
2022-10-18T12:29:24.426Z,23.97
2022-10-18T12:30:24.402Z,23.86
2022-10-18T12:31:24.411Z,24.00
2022-10-18T12:32:24.395Z,24.06
2022-10-18T12:33:28.285Z,23.90
2022-10-18T12:34:24.389Z,23.92
2022-10-18T12:35:24.385Z,23.90
2022-10-18T12:36:24.378Z,23.86
2022-10-18T12:37:24.375Z,23.60
2022-10-18T12:38:24.389Z,23.60
2022-10-18T12:39:33.311Z,23.62
2022-10-18T12:40:24.364Z,23.71
2022-10-18T12:41:24.361Z,23.75
2022-10-18T12:42:24.361Z,23.82
2022-10-18T12:43:24.354Z,23.94
2022-10-18T12:44:24.346Z,23.93
2022-10-18T12:45:24.348Z,23.93
2022-10-18T12:46:24.438Z,24.04
2022-10-18T12:47:24.340Z,23.99
2022-10-18T12:48:24.345Z,24.11
2022-10-18T12:49:24.331Z,24.14
2022-10-18T12:50:24.330Z,24.14
2022-10-18T12:51:24.324Z,24.16
2022-10-18T12:52:24.319Z,24.19
2022-10-18T12:53:24.314Z,24.24
2022-10-18T12:54:24.716Z,24.26
2022-10-18T12:55:24.308Z,24.27
2022-10-18T12:56:25.247Z,24.16
2022-10-18T12:57:24.301Z,24.05
2022-10-18T12:58:24.302Z,24.08
2022-10-18T12:59:24.295Z,24.11
2022-10-18T13:00:24.292Z,24.08
2022-10-18T13:01:24.372Z,24.00
2022-10-18T13:02:24.293Z,23.82
2022-10-18T13:03:24.284Z,23.92
2022-10-18T13:04:24.277Z,23.92